MS9 weather

Eagles Ridge Airport
Hernando, Mississippi, United States

Public forecast

Using degrees Fahrenheit for public forecast. Weather courtesy of forecast.io.

Closest aviation weather report (METAR) to Eagles Ridge Airport

Closest report is Olive Branch Airport, 12.5 nm (23.2 km) NNE. Retrieved 2019/10/22 18:50 UTC (1 hour ago):

KOLV 221850Z 29012G20KT 10SM SKC 18/01 A3006

Closest aviation forecast (TAF) to Eagles Ridge Airport

Closest forecast is Memphis International Airport, 15.0 nm (27.9 km) NNW. Retrieved 2019/10/22 18:22 UTC (2 hours ago):

TAF KMEM 221720Z 2218/2324 28011G18KT P6SM SKC FM230000 23006KT P6SM SKC FM231600 21009G15KT P6SM SKC FM232300 20007KT P6SM SKC